sensor_id;sensor_type;location;lat;lon;timestamp;P1;durP1;ratioP1;P2;durP2;ratioP2
46563;SDS011;32291;52.010;4.446;2023-05-23T00:00:46;24.02;;;14.13;;
46563;SDS011;32291;52.010;4.446;2023-05-23T00:01:51;23.83;;;15.10;;
46563;SDS011;32291;52.010;4.446;2023-05-23T00:02:54;21.65;;;13.10;;
46563;SDS011;32291;52.010;4.446;2023-05-23T00:03:56;25.25;;;13.40;;
46563;SDS011;32291;52.010;4.446;2023-05-23T00:04:58;25.02;;;14.50;;
46563;SDS011;32291;52.010;4.446;2023-05-23T00:06:04;22.45;;;12.73;;
46563;SDS011;32291;52.010;4.446;2023-05-23T00:07:07;21.27;;;12.95;;
46563;SDS011;32291;52.010;4.446;2023-05-23T00:08:09;26.58;;;13.50;;
46563;SDS011;32291;52.010;4.446;2023-05-23T00:09:13;26.10;;;13.32;;
46563;SDS011;32291;52.010;4.446;2023-05-23T00:10:16;23.48;;;12.90;;
46563;SDS011;32291;52.010;4.446;2023-05-23T00:11:17;19.55;;;12.15;;
46563;SDS011;32291;52.010;4.446;2023-05-23T00:12:20;18.67;;;11.43;;
46563;SDS011;32291;52.010;4.446;2023-05-23T00:13:22;17.00;;;12.50;;
46563;SDS011;32291;52.010;4.446;2023-05-23T00:14:23;17.17;;;11.57;;
46563;SDS011;32291;52.010;4.446;2023-05-23T00:15:25;16.67;;;10.82;;
46563;SDS011;32291;52.010;4.446;2023-05-23T00:16:27;16.58;;;11.05;;
46563;SDS011;32291;52.010;4.446;2023-05-23T00:17:30;12.88;;;8.90;;
46563;SDS011;32291;52.010;4.446;2023-05-23T00:18:32;14.60;;;9.85;;
46563;SDS011;32291;52.010;4.446;2023-05-23T00:19:35;12.48;;;8.55;;
46563;SDS011;32291;52.010;4.446;2023-05-23T00:20:39;16.20;;;9.20;;
46563;SDS011;32291;52.010;4.446;2023-05-23T00:21:46;14.38;;;8.68;;
46563;SDS011;32291;52.010;4.446;2023-05-23T00:22:49;13.25;;;9.40;;
46563;SDS011;32291;52.010;4.446;2023-05-23T00:23:50;13.75;;;8.32;;
46563;SDS011;32291;52.010;4.446;2023-05-23T00:24:53;12.05;;;8.32;;
46563;SDS011;32291;52.010;4.446;2023-05-23T00:25:57;13.38;;;8.63;;
46563;SDS011;32291;52.010;4.446;2023-05-23T00:27:00;13.90;;;9.13;;
46563;SDS011;32291;52.010;4.446;2023-05-23T00:28:02;15.07;;;9.32;;
46563;SDS011;32291;52.010;4.446;2023-05-23T00:29:04;14.77;;;8.50;;
46563;SDS011;32291;52.010;4.446;2023-05-23T00:30:06;13.27;;;9.40;;
46563;SDS011;32291;52.010;4.446;2023-05-23T00:31:08;14.82;;;9.73;;
46563;SDS011;32291;52.010;4.446;2023-05-23T00:32:10;16.70;;;8.95;;
46563;SDS011;32291;52.010;4.446;2023-05-23T00:33:12;15.48;;;10.05;;
46563;SDS011;32291;52.010;4.446;2023-05-23T00:34:15;15.50;;;9.45;;
46563;SDS011;32291;52.010;4.446;2023-05-23T00:35:17;13.07;;;9.30;;
46563;SDS011;32291;52.010;4.446;2023-05-23T00:36:19;17.35;;;10.05;;
46563;SDS011;32291;52.010;4.446;2023-05-23T00:37:21;15.10;;;9.77;;
46563;SDS011;32291;52.010;4.446;2023-05-23T00:38:23;17.65;;;10.30;;
46563;SDS011;32291;52.010;4.446;2023-05-23T00:39:26;14.02;;;10.32;;
46563;SDS011;32291;52.010;4.446;2023-05-23T00:40:27;17.10;;;10.13;;
46563;SDS011;32291;52.010;4.446;2023-05-23T00:41:29;22.75;;;10.88;;
46563;SDS011;32291;52.010;4.446;2023-05-23T00:42:31;20.05;;;10.82;;
46563;SDS011;32291;52.010;4.446;2023-05-23T00:43:33;19.85;;;10.95;;
46563;SDS011;32291;52.010;4.446;2023-05-23T00:44:34;20.42;;;10.77;;
46563;SDS011;32291;52.010;4.446;2023-05-23T00:45:36;21.55;;;11.25;;
46563;SDS011;32291;52.010;4.446;2023-05-23T00:46:38;21.05;;;11.30;;
46563;SDS011;32291;52.010;4.446;2023-05-23T00:47:41;18.83;;;10.07;;
46563;SDS011;32291;52.010;4.446;2023-05-23T00:48:44;23.77;;;12.15;;
46563;SDS011;32291;52.010;4.446;2023-05-23T00:49:46;17.20;;;10.15;;
46563;SDS011;32291;52.010;4.446;2023-05-23T00:50:48;18.42;;;11.55;;
46563;SDS011;32291;52.010;4.446;2023-05-23T00:51:51;24.77;;;11.60;;
46563;SDS011;32291;52.010;4.446;2023-05-23T00:52:53;20.88;;;11.23;;
46563;SDS011;32291;52.010;4.446;2023-05-23T00:53:55;21.10;;;10.70;;
46563;SDS011;32291;52.010;4.446;2023-05-23T00:55:01;21.90;;;10.43;;
46563;SDS011;32291;52.010;4.446;2023-05-23T00:56:03;21.25;;;10.30;;
46563;SDS011;32291;52.010;4.446;2023-05-23T00:57:05;17.75;;;9.55;;
46563;SDS011;32291;52.010;4.446;2023-05-23T00:58:07;24.35;;;11.55;;
46563;SDS011;32291;52.010;4.446;2023-05-23T00:59:09;17.65;;;9.85;;
46563;SDS011;32291;52.010;4.446;2023-05-23T01:00:13;19.40;;;9.38;;
46563;SDS011;32291;52.010;4.446;2023-05-23T01:01:16;18.75;;;9.82;;
46563;SDS011;32291;52.010;4.446;2023-05-23T01:02:19;22.45;;;10.13;;
46563;SDS011;32291;52.010;4.446;2023-05-23T01:03:21;20.17;;;9.85;;
46563;SDS011;32291;52.010;4.446;2023-05-23T01:04:23;22.65;;;10.75;;
46563;SDS011;32291;52.010;4.446;2023-05-23T01:05:26;22.67;;;10.65;;
46563;SDS011;32291;52.010;4.446;2023-05-23T01:06:28;18.55;;;9.57;;
46563;SDS011;32291;52.010;4.446;2023-05-23T01:07:36;19.58;;;10.25;;
46563;SDS011;32291;52.010;4.446;2023-05-23T01:08:38;18.20;;;9.27;;
46563;SDS011;32291;52.010;4.446;2023-05-23T01:09:42;19.08;;;9.32;;
46563;SDS011;32291;52.010;4.446;2023-05-23T01:10:44;20.50;;;9.95;;
46563;SDS011;32291;52.010;4.446;2023-05-23T01:11:52;16.13;;;9.63;;
46563;SDS011;32291;52.010;4.446;2023-05-23T01:16:27;22.05;;;9.02;;
46563;SDS011;32291;52.010;4.446;2023-05-23T01:17:53;16.95;;;8.18;;
46563;SDS011;32291;52.010;4.446;2023-05-23T01:19:13;20.08;;;8.70;;
46563;SDS011;32291;52.010;4.446;2023-05-23T01:20:48;18.20;;;7.90;;
46563;SDS011;32291;52.010;4.446;2023-05-23T01:21:55;18.55;;;7.97;;
46563;SDS011;32291;52.010;4.446;2023-05-23T01:24:46;23.27;;;9.30;;
46563;SDS011;32291;52.010;4.446;2023-05-23T01:26:08;20.83;;;8.48;;
46563;SDS011;32291;52.010;4.446;2023-05-23T01:27:42;18.38;;;7.80;;
46563;SDS011;32291;52.010;4.446;2023-05-23T01:28:57;22.55;;;9.00;;
46563;SDS011;32291;52.010;4.446;2023-05-23T01:30:10;23.83;;;8.13;;
46563;SDS011;32291;52.010;4.446;2023-05-23T01:31:17;19.38;;;8.68;;
46563;SDS011;32291;52.010;4.446;2023-05-23T01:32:24;14.40;;;7.90;;
46563;SDS011;32291;52.010;4.446;2023-05-23T01:33:28;24.52;;;9.00;;
46563;SDS011;32291;52.010;4.446;2023-05-23T01:34:34;20.90;;;8.30;;
46563;SDS011;32291;52.010;4.446;2023-05-23T01:35:39;21.95;;;8.25;;
46563;SDS011;32291;52.010;4.446;2023-05-23T01:36:44;17.83;;;7.47;;
46563;SDS011;32291;52.010;4.446;2023-05-23T01:37:46;18.08;;;8.05;;
46563;SDS011;32291;52.010;4.446;2023-05-23T01:38:48;20.10;;;8.85;;
46563;SDS011;32291;52.010;4.446;2023-05-23T01:39:50;19.88;;;7.50;;
46563;SDS011;32291;52.010;4.446;2023-05-23T01:40:52;22.40;;;9.45;;
46563;SDS011;32291;52.010;4.446;2023-05-23T01:41:54;18.95;;;8.35;;
46563;SDS011;32291;52.010;4.446;2023-05-23T01:42:56;18.70;;;6.90;;
46563;SDS011;32291;52.010;4.446;2023-05-23T01:43:58;19.40;;;7.88;;
46563;SDS011;32291;52.010;4.446;2023-05-23T01:45:01;23.73;;;8.57;;
46563;SDS011;32291;52.010;4.446;2023-05-23T01:46:04;19.60;;;8.05;;
46563;SDS011;32291;52.010;4.446;2023-05-23T01:47:08;18.85;;;7.93;;
46563;SDS011;32291;52.010;4.446;2023-05-23T01:48:11;19.83;;;7.88;;
46563;SDS011;32291;52.010;4.446;2023-05-23T01:49:17;14.40;;;7.72;;
46563;SDS011;32291;52.010;4.446;2023-05-23T01:50:22;15.00;;;7.53;;
46563;SDS011;32291;52.010;4.446;2023-05-23T01:51:25;17.33;;;7.57;;
46563;SDS011;32291;52.010;4.446;2023-05-23T01:52:28;18.95;;;8.32;;
46563;SDS011;32291;52.010;4.446;2023-05-23T01:53:30;15.07;;;6.88;;
46563;SDS011;32291;52.010;4.446;2023-05-23T01:54:34;21.92;;;7.95;;
46563;SDS011;32291;52.010;4.446;2023-05-23T01:55:39;18.80;;;8.38;;
46563;SDS011;32291;52.010;4.446;2023-05-23T01:56:42;15.57;;;7.47;;
46563;SDS011;32291;52.010;4.446;2023-05-23T01:57:45;19.17;;;7.38;;
46563;SDS011;32291;52.010;4.446;2023-05-23T01:58:50;18.17;;;7.95;;
46563;SDS011;32291;52.010;4.446;2023-05-23T01:59:52;12.68;;;7.50;;
46563;SDS011;32291;52.010;4.446;2023-05-23T02:00:54;14.63;;;7.03;;
46563;SDS011;32291;52.010;4.446;2023-05-23T02:01:56;15.20;;;7.13;;
46563;SDS011;32291;52.010;4.446;2023-05-23T02:02:58;15.13;;;7.18;;
46563;SDS011;32291;52.010;4.446;2023-05-23T02:04:01;16.67;;;6.70;;
46563;SDS011;32291;52.010;4.446;2023-05-23T02:05:04;22.77;;;8.52;;
46563;SDS011;32291;52.010;4.446;2023-05-23T02:06:06;17.55;;;8.25;;
46563;SDS011;32291;52.010;4.446;2023-05-23T02:07:08;16.17;;;7.53;;
46563;SDS011;32291;52.010;4.446;2023-05-23T02:08:10;16.33;;;7.93;;
46563;SDS011;32291;52.010;4.446;2023-05-23T02:09:12;16.15;;;7.60;;
46563;SDS011;32291;52.010;4.446;2023-05-23T02:10:14;16.55;;;7.28;;
46563;SDS011;32291;52.010;4.446;2023-05-23T02:11:15;21.13;;;8.05;;
46563;SDS011;32291;52.010;4.446;2023-05-23T02:12:17;21.50;;;7.65;;
46563;SDS011;32291;52.010;4.446;2023-05-23T02:13:18;17.08;;;6.85;;
46563;SDS011;32291;52.010;4.446;2023-05-23T02:14:20;21.40;;;8.55;;
46563;SDS011;32291;52.010;4.446;2023-05-23T02:15:23;16.92;;;8.50;;
46563;SDS011;32291;52.010;4.446;2023-05-23T02:16:25;14.30;;;6.97;;
46563;SDS011;32291;52.010;4.446;2023-05-23T02:17:27;18.25;;;7.72;;
46563;SDS011;32291;52.010;4.446;2023-05-23T02:18:30;18.27;;;8.05;;
46563;SDS011;32291;52.010;4.446;2023-05-23T02:19:31;17.38;;;7.05;;
46563;SDS011;32291;52.010;4.446;2023-05-23T02:20:33;21.30;;;7.90;;
46563;SDS011;32291;52.010;4.446;2023-05-23T02:21:35;24.52;;;7.63;;
46563;SDS011;32291;52.010;4.446;2023-05-23T02:22:38;21.50;;;7.65;;
46563;SDS011;32291;52.010;4.446;2023-05-23T02:23:40;19.75;;;7.63;;
46563;SDS011;32291;52.010;4.446;2023-05-23T02:24:41;20.35;;;7.85;;
46563;SDS011;32291;52.010;4.446;2023-05-23T02:25:43;15.38;;;7.50;;
46563;SDS011;32291;52.010;4.446;2023-05-23T02:26:45;16.92;;;7.75;;
46563;SDS011;32291;52.010;4.446;2023-05-23T02:27:47;18.73;;;7.63;;
46563;SDS011;32291;52.010;4.446;2023-05-23T02:28:49;14.80;;;6.60;;
46563;SDS011;32291;52.010;4.446;2023-05-23T02:29:51;19.10;;;7.97;;
46563;SDS011;32291;52.010;4.446;2023-05-23T02:30:52;16.10;;;6.85;;
46563;SDS011;32291;52.010;4.446;2023-05-23T02:31:54;16.52;;;7.78;;
46563;SDS011;32291;52.010;4.446;2023-05-23T02:32:56;19.08;;;7.60;;
46563;SDS011;32291;52.010;4.446;2023-05-23T02:33:58;21.02;;;7.40;;
46563;SDS011;32291;52.010;4.446;2023-05-23T02:34:59;17.65;;;7.60;;
46563;SDS011;32291;52.010;4.446;2023-05-23T02:36:01;20.38;;;8.20;;
46563;SDS011;32291;52.010;4.446;2023-05-23T02:37:03;13.02;;;7.15;;
46563;SDS011;32291;52.010;4.446;2023-05-23T02:38:05;18.75;;;7.45;;
46563;SDS011;32291;52.010;4.446;2023-05-23T02:39:07;18.25;;;7.53;;
46563;SDS011;32291;52.010;4.446;2023-05-23T02:40:09;20.92;;;7.95;;
46563;SDS011;32291;52.010;4.446;2023-05-23T02:41:12;17.83;;;7.32;;
46563;SDS011;32291;52.010;4.446;2023-05-23T02:42:14;16.33;;;6.68;;
46563;SDS011;32291;52.010;4.446;2023-05-23T02:43:16;18.95;;;7.85;;
46563;SDS011;32291;52.010;4.446;2023-05-23T02:44:18;19.88;;;7.63;;
46563;SDS011;32291;52.010;4.446;2023-05-23T02:45:19;14.27;;;7.15;;
46563;SDS011;32291;52.010;4.446;2023-05-23T02:46:21;18.20;;;6.55;;
46563;SDS011;32291;52.010;4.446;2023-05-23T02:47:23;21.27;;;6.95;;
46563;SDS011;32291;52.010;4.446;2023-05-23T02:48:25;22.23;;;6.95;;
46563;SDS011;32291;52.010;4.446;2023-05-23T02:49:27;22.65;;;6.70;;
46563;SDS011;32291;52.010;4.446;2023-05-23T02:50:29;18.50;;;7.05;;
46563;SDS011;32291;52.010;4.446;2023-05-23T02:51:31;19.98;;;6.63;;
46563;SDS011;32291;52.010;4.446;2023-05-23T02:52:33;21.15;;;6.97;;
46563;SDS011;32291;52.010;4.446;2023-05-23T02:53:35;22.52;;;6.43;;
46563;SDS011;32291;52.010;4.446;2023-05-23T02:54:37;19.35;;;6.70;;
46563;SDS011;32291;52.010;4.446;2023-05-23T02:55:39;17.00;;;6.03;;
46563;SDS011;32291;52.010;4.446;2023-05-23T02:56:41;17.92;;;7.07;;
46563;SDS011;32291;52.010;4.446;2023-05-23T02:57:42;14.18;;;5.63;;
46563;SDS011;32291;52.010;4.446;2023-05-23T02:58:44;13.65;;;5.95;;
46563;SDS011;32291;52.010;4.446;2023-05-23T02:59:46;17.17;;;5.43;;
46563;SDS011;32291;52.010;4.446;2023-05-23T03:00:47;14.88;;;6.10;;
46563;SDS011;32291;52.010;4.446;2023-05-23T03:01:49;13.63;;;6.20;;
46563;SDS011;32291;52.010;4.446;2023-05-23T03:02:50;21.88;;;5.70;;
46563;SDS011;32291;52.010;4.446;2023-05-23T03:03:52;11.23;;;5.50;;
46563;SDS011;32291;52.010;4.446;2023-05-23T03:04:54;15.43;;;5.82;;
46563;SDS011;32291;52.010;4.446;2023-05-23T03:05:57;17.35;;;5.82;;
46563;SDS011;32291;52.010;4.446;2023-05-23T03:07:00;14.25;;;6.18;;
46563;SDS011;32291;52.010;4.446;2023-05-23T03:08:03;12.75;;;5.45;;
46563;SDS011;32291;52.010;4.446;2023-05-23T03:09:05;16.35;;;5.40;;
46563;SDS011;32291;52.010;4.446;2023-05-23T03:10:09;13.50;;;5.57;;
46563;SDS011;32291;52.010;4.446;2023-05-23T03:11:11;18.42;;;6.05;;
46563;SDS011;32291;52.010;4.446;2023-05-23T03:12:12;15.93;;;6.45;;
46563;SDS011;32291;52.010;4.446;2023-05-23T03:13:17;16.80;;;6.30;;
46563;SDS011;32291;52.010;4.446;2023-05-23T03:14:19;16.58;;;6.53;;
46563;SDS011;32291;52.010;4.446;2023-05-23T03:15:21;13.98;;;5.30;;
46563;SDS011;32291;52.010;4.446;2023-05-23T03:16:22;15.32;;;5.82;;
46563;SDS011;32291;52.010;4.446;2023-05-23T03:17:25;15.43;;;6.28;;
46563;SDS011;32291;52.010;4.446;2023-05-23T03:18:26;17.15;;;6.75;;
46563;SDS011;32291;52.010;4.446;2023-05-23T03:19:28;14.05;;;6.32;;
46563;SDS011;32291;52.010;4.446;2023-05-23T03:20:30;14.95;;;6.50;;
46563;SDS011;32291;52.010;4.446;2023-05-23T03:21:33;19.40;;;5.65;;
46563;SDS011;32291;52.010;4.446;2023-05-23T03:22:35;13.25;;;5.78;;
46563;SDS011;32291;52.010;4.446;2023-05-23T03:23:37;16.80;;;6.20;;
46563;SDS011;32291;52.010;4.446;2023-05-23T03:24:39;13.25;;;6.15;;
46563;SDS011;32291;52.010;4.446;2023-05-23T03:25:41;13.52;;;5.95;;
46563;SDS011;32291;52.010;4.446;2023-05-23T03:26:43;18.75;;;6.55;;
46563;SDS011;32291;52.010;4.446;2023-05-23T03:27:45;15.23;;;5.90;;
46563;SDS011;32291;52.010;4.446;2023-05-23T03:28:47;14.63;;;5.72;;
46563;SDS011;32291;52.010;4.446;2023-05-23T03:29:51;11.10;;;5.32;;
46563;SDS011;32291;52.010;4.446;2023-05-23T03:30:53;16.30;;;6.00;;
46563;SDS011;32291;52.010;4.446;2023-05-23T03:31:55;9.68;;;6.15;;
46563;SDS011;32291;52.010;4.446;2023-05-23T03:32:57;10.80;;;5.20;;
46563;SDS011;32291;52.010;4.446;2023-05-23T03:33:58;14.18;;;4.88;;
46563;SDS011;32291;52.010;4.446;2023-05-23T03:35:00;7.90;;;4.38;;
46563;SDS011;32291;52.010;4.446;2023-05-23T03:36:02;12.57;;;4.88;;
46563;SDS011;32291;52.010;4.446;2023-05-23T03:37:03;11.55;;;4.32;;
46563;SDS011;32291;52.010;4.446;2023-05-23T03:38:05;12.35;;;5.03;;
46563;SDS011;32291;52.010;4.446;2023-05-23T03:39:07;11.25;;;4.63;;
46563;SDS011;32291;52.010;4.446;2023-05-23T03:40:09;10.68;;;4.68;;
46563;SDS011;32291;52.010;4.446;2023-05-23T03:41:11;11.55;;;5.60;;
46563;SDS011;32291;52.010;4.446;2023-05-23T03:42:13;11.85;;;5.22;;
46563;SDS011;32291;52.010;4.446;2023-05-23T03:43:14;10.35;;;4.40;;
46563;SDS011;32291;52.010;4.446;2023-05-23T03:44:16;13.40;;;4.95;;
46563;SDS011;32291;52.010;4.446;2023-05-23T03:45:17;9.10;;;4.40;;
46563;SDS011;32291;52.010;4.446;2023-05-23T03:46:19;9.15;;;4.03;;
46563;SDS011;32291;52.010;4.446;2023-05-23T03:47:21;13.60;;;5.20;;
46563;SDS011;32291;52.010;4.446;2023-05-23T03:48:26;12.63;;;5.50;;
46563;SDS011;32291;52.010;4.446;2023-05-23T03:49:29;14.82;;;5.18;;
46563;SDS011;32291;52.010;4.446;2023-05-23T03:50:31;10.93;;;5.20;;
46563;SDS011;32291;52.010;4.446;2023-05-23T03:51:32;13.55;;;5.00;;
46563;SDS011;32291;52.010;4.446;2023-05-23T03:52:34;13.32;;;5.85;;
46563;SDS011;32291;52.010;4.446;2023-05-23T03:53:36;8.95;;;4.43;;
46563;SDS011;32291;52.010;4.446;2023-05-23T03:54:38;9.93;;;5.45;;
46563;SDS011;32291;52.010;4.446;2023-05-23T03:55:40;11.48;;;4.80;;
46563;SDS011;32291;52.010;4.446;2023-05-23T03:56:42;11.95;;;5.38;;
46563;SDS011;32291;52.010;4.446;2023-05-23T03:57:44;9.13;;;4.30;;
46563;SDS011;32291;52.010;4.446;2023-05-23T03:58:46;10.23;;;4.55;;
46563;SDS011;32291;52.010;4.446;2023-05-23T03:59:48;8.50;;;4.90;;
46563;SDS011;32291;52.010;4.446;2023-05-23T04:00:50;11.25;;;4.50;;
46563;SDS011;32291;52.010;4.446;2023-05-23T04:01:53;13.15;;;4.60;;
46563;SDS011;32291;52.010;4.446;2023-05-23T04:02:55;11.20;;;5.57;;
46563;SDS011;32291;52.010;4.446;2023-05-23T04:03:57;13.80;;;5.50;;
46563;SDS011;32291;52.010;4.446;2023-05-23T04:05:00;10.93;;;4.80;;
46563;SDS011;32291;52.010;4.446;2023-05-23T04:06:03;11.23;;;5.50;;
46563;SDS011;32291;52.010;4.446;2023-05-23T04:07:05;9.18;;;5.32;;
46563;SDS011;32291;52.010;4.446;2023-05-23T04:08:08;14.10;;;5.15;;
46563;SDS011;32291;52.010;4.446;2023-05-23T04:09:10;11.93;;;5.00;;
46563;SDS011;32291;52.010;4.446;2023-05-23T04:10:12;10.50;;;5.45;;
46563;SDS011;32291;52.010;4.446;2023-05-23T04:11:14;16.40;;;5.20;;
46563;SDS011;32291;52.010;4.446;2023-05-23T04:12:15;14.18;;;5.35;;
46563;SDS011;32291;52.010;4.446;2023-05-23T04:13:17;16.13;;;5.55;;
46563;SDS011;32291;52.010;4.446;2023-05-23T04:14:20;15.88;;;5.82;;
46563;SDS011;32291;52.010;4.446;2023-05-23T04:15:22;13.98;;;5.60;;
46563;SDS011;32291;52.010;4.446;2023-05-23T04:16:24;12.30;;;5.38;;
46563;SDS011;32291;52.010;4.446;2023-05-23T04:17:26;16.98;;;5.63;;
46563;SDS011;32291;52.010;4.446;2023-05-23T04:18:29;15.30;;;5.82;;
46563;SDS011;32291;52.010;4.446;2023-05-23T04:19:33;15.45;;;6.45;;
46563;SDS011;32291;52.010;4.446;2023-05-23T04:20:35;11.48;;;5.45;;
46563;SDS011;32291;52.010;4.446;2023-05-23T04:21:37;14.18;;;5.70;;
46563;SDS011;32291;52.010;4.446;2023-05-23T04:22:39;14.90;;;6.45;;
46563;SDS011;32291;52.010;4.446;2023-05-23T04:23:41;16.92;;;6.45;;
46563;SDS011;32291;52.010;4.446;2023-05-23T04:24:43;13.30;;;6.38;;
46563;SDS011;32291;52.010;4.446;2023-05-23T04:25:44;12.48;;;5.95;;
46563;SDS011;32291;52.010;4.446;2023-05-23T04:26:48;10.45;;;6.47;;
46563;SDS011;32291;52.010;4.446;2023-05-23T04:27:50;13.75;;;6.70;;
46563;SDS011;32291;52.010;4.446;2023-05-23T04:28:53;14.35;;;6.53;;
46563;SDS011;32291;52.010;4.446;2023-05-23T04:29:56;12.50;;;7.07;;
46563;SDS011;32291;52.010;4.446;2023-05-23T04:30:58;10.32;;;6.82;;
46563;SDS011;32291;52.010;4.446;2023-05-23T04:32:02;15.57;;;7.03;;
46563;SDS011;32291;52.010;4.446;2023-05-23T04:33:05;14.23;;;6.68;;
46563;SDS011;32291;52.010;4.446;2023-05-23T04:34:07;13.63;;;6.50;;
46563;SDS011;32291;52.010;4.446;2023-05-23T04:35:09;11.88;;;6.70;;
46563;SDS011;32291;52.010;4.446;2023-05-23T04:36:11;17.95;;;7.10;;
46563;SDS011;32291;52.010;4.446;2023-05-23T04:37:13;15.65;;;7.28;;
46563;SDS011;32291;52.010;4.446;2023-05-23T04:38:15;12.30;;;6.82;;
46563;SDS011;32291;52.010;4.446;2023-05-23T04:39:17;11.63;;;6.80;;
46563;SDS011;32291;52.010;4.446;2023-05-23T04:40:20;15.88;;;6.72;;
46563;SDS011;32291;52.010;4.446;2023-05-23T04:41:24;15.90;;;7.45;;
46563;SDS011;32291;52.010;4.446;2023-05-23T04:42:26;16.88;;;7.68;;
46563;SDS011;32291;52.010;4.446;2023-05-23T04:43:29;15.43;;;7.80;;
46563;SDS011;32291;52.010;4.446;2023-05-23T04:44:33;17.75;;;7.38;;
46563;SDS011;32291;52.010;4.446;2023-05-23T04:45:37;16.17;;;7.25;;
46563;SDS011;32291;52.010;4.446;2023-05-23T04:46:41;15.57;;;7.57;;
46563;SDS011;32291;52.010;4.446;2023-05-23T04:47:45;16.77;;;7.10;;
46563;SDS011;32291;52.010;4.446;2023-05-23T04:48:47;15.65;;;7.85;;
46563;SDS011;32291;52.010;4.446;2023-05-23T04:49:50;17.73;;;7.65;;
46563;SDS011;32291;52.010;4.446;2023-05-23T04:50:53;16.35;;;6.63;;
46563;SDS011;32291;52.010;4.446;2023-05-23T04:51:56;17.80;;;7.75;;
46563;SDS011;32291;52.010;4.446;2023-05-23T04:52:58;20.27;;;8.05;;
46563;SDS011;32291;52.010;4.446;2023-05-23T04:54:00;13.20;;;6.38;;
46563;SDS011;32291;52.010;4.446;2023-05-23T04:55:02;14.35;;;7.32;;
46563;SDS011;32291;52.010;4.446;2023-05-23T04:56:06;11.75;;;6.78;;
46563;SDS011;32291;52.010;4.446;2023-05-23T04:57:08;16.45;;;7.10;;
46563;SDS011;32291;52.010;4.446;2023-05-23T04:58:10;17.85;;;7.50;;
46563;SDS011;32291;52.010;4.446;2023-05-23T04:59:13;13.40;;;7.28;;
46563;SDS011;32291;52.010;4.446;2023-05-23T05:00:15;12.10;;;7.13;;
46563;SDS011;32291;52.010;4.446;2023-05-23T05:01:18;15.48;;;7.38;;
46563;SDS011;32291;52.010;4.446;2023-05-23T05:02:20;14.95;;;7.47;;
46563;SDS011;32291;52.010;4.446;2023-05-23T05:03:21;15.50;;;7.90;;
46563;SDS011;32291;52.010;4.446;2023-05-23T05:04:24;15.27;;;7.05;;
46563;SDS011;32291;52.010;4.446;2023-05-23T05:05:26;19.95;;;7.35;;
46563;SDS011;32291;52.010;4.446;2023-05-23T05:06:28;14.85;;;7.15;;
46563;SDS011;32291;52.010;4.446;2023-05-23T05:07:30;14.48;;;7.25;;
46563;SDS011;32291;52.010;4.446;2023-05-23T05:08:32;13.57;;;7.18;;
46563;SDS011;32291;52.010;4.446;2023-05-23T05:09:33;11.93;;;6.93;;
46563;SDS011;32291;52.010;4.446;2023-05-23T05:10:37;12.75;;;6.97;;
46563;SDS011;32291;52.010;4.446;2023-05-23T05:11:40;15.82;;;7.07;;
46563;SDS011;32291;52.010;4.446;2023-05-23T05:12:45;17.05;;;7.63;;
46563;SDS011;32291;52.010;4.446;2023-05-23T05:13:49;18.88;;;6.55;;
46563;SDS011;32291;52.010;4.446;2023-05-23T05:14:51;14.60;;;7.97;;
46563;SDS011;32291;52.010;4.446;2023-05-23T05:15:53;15.02;;;7.65;;
46563;SDS011;32291;52.010;4.446;2023-05-23T05:16:55;16.52;;;7.07;;
46563;SDS011;32291;52.010;4.446;2023-05-23T05:17:57;15.77;;;7.35;;
46563;SDS011;32291;52.010;4.446;2023-05-23T05:18:59;10.98;;;7.13;;
46563;SDS011;32291;52.010;4.446;2023-05-23T05:20:02;12.95;;;6.95;;
46563;SDS011;32291;52.010;4.446;2023-05-23T05:21:08;12.32;;;6.60;;
46563;SDS011;32291;52.010;4.446;2023-05-23T05:22:10;14.43;;;7.43;;
46563;SDS011;32291;52.010;4.446;2023-05-23T05:23:12;12.55;;;6.60;;
46563;SDS011;32291;52.010;4.446;2023-05-23T05:24:14;13.60;;;6.75;;
46563;SDS011;32291;52.010;4.446;2023-05-23T05:25:16;15.55;;;7.18;;
46563;SDS011;32291;52.010;4.446;2023-05-23T05:26:17;12.15;;;6.20;;
46563;SDS011;32291;52.010;4.446;2023-05-23T05:27:19;15.90;;;7.10;;
46563;SDS011;32291;52.010;4.446;2023-05-23T05:28:20;15.57;;;6.95;;
46563;SDS011;32291;52.010;4.446;2023-05-23T05:29:23;11.73;;;6.45;;
46563;SDS011;32291;52.010;4.446;2023-05-23T05:30:25;15.02;;;6.72;;
46563;SDS011;32291;52.010;4.446;2023-05-23T05:31:27;16.98;;;7.50;;
46563;SDS011;32291;52.010;4.446;2023-05-23T05:32:29;14.90;;;7.28;;
46563;SDS011;32291;52.010;4.446;2023-05-23T05:33:33;15.77;;;6.57;;
46563;SDS011;32291;52.010;4.446;2023-05-23T05:34:35;12.07;;;7.55;;
46563;SDS011;32291;52.010;4.446;2023-05-23T05:35:38;13.38;;;6.90;;
46563;SDS011;32291;52.010;4.446;2023-05-23T05:36:40;14.05;;;7.30;;
46563;SDS011;32291;52.010;4.446;2023-05-23T05:37:46;13.40;;;6.60;;
46563;SDS011;32291;52.010;4.446;2023-05-23T05:38:48;13.52;;;7.10;;
46563;SDS011;32291;52.010;4.446;2023-05-23T05:39:51;10.77;;;6.25;;
46563;SDS011;32291;52.010;4.446;2023-05-23T05:40:54;17.00;;;6.55;;
46563;SDS011;32291;52.010;4.446;2023-05-23T05:41:55;12.15;;;6.40;;
46563;SDS011;32291;52.010;4.446;2023-05-23T05:42:57;14.63;;;6.07;;
46563;SDS011;32291;52.010;4.446;2023-05-23T05:43:58;18.02;;;7.63;;
46563;SDS011;32291;52.010;4.446;2023-05-23T05:45:00;10.40;;;5.90;;
46563;SDS011;32291;52.010;4.446;2023-05-23T05:46:02;10.70;;;5.72;;
46563;SDS011;32291;52.010;4.446;2023-05-23T05:47:03;12.15;;;6.25;;
46563;SDS011;32291;52.010;4.446;2023-05-23T05:48:05;15.50;;;6.38;;
46563;SDS011;32291;52.010;4.446;2023-05-23T05:49:07;12.43;;;6.60;;
46563;SDS011;32291;52.010;4.446;2023-05-23T05:50:11;11.15;;;6.40;;
46563;SDS011;32291;52.010;4.446;2023-05-23T05:51:13;14.82;;;6.80;;
46563;SDS011;32291;52.010;4.446;2023-05-23T05:52:15;14.73;;;6.35;;
46563;SDS011;32291;52.010;4.446;2023-05-23T05:53:16;12.10;;;5.35;;
46563;SDS011;32291;52.010;4.446;2023-05-23T05:54:18;14.55;;;6.22;;
46563;SDS011;32291;52.010;4.446;2023-05-23T05:55:19;12.75;;;6.03;;
46563;SDS011;32291;52.010;4.446;2023-05-23T05:56:21;14.43;;;6.25;;
46563;SDS011;32291;52.010;4.446;2023-05-23T05:57:23;11.25;;;5.40;;
46563;SDS011;32291;52.010;4.446;2023-05-23T05:58:25;12.15;;;5.45;;
46563;SDS011;32291;52.010;4.446;2023-05-23T05:59:26;9.10;;;4.80;;
46563;SDS011;32291;52.010;4.446;2023-05-23T06:00:28;14.27;;;5.00;;
46563;SDS011;32291;52.010;4.446;2023-05-23T06:01:30;8.98;;;4.88;;
46563;SDS011;32291;52.010;4.446;2023-05-23T06:02:31;10.88;;;5.07;;
46563;SDS011;32291;52.010;4.446;2023-05-23T06:03:33;10.60;;;5.07;;
46563;SDS011;32291;52.010;4.446;2023-05-23T06:04:35;10.27;;;4.63;;
46563;SDS011;32291;52.010;4.446;2023-05-23T06:05:37;14.63;;;4.80;;
46563;SDS011;32291;52.010;4.446;2023-05-23T06:06:39;11.88;;;4.50;;
46563;SDS011;32291;52.010;4.446;2023-05-23T06:07:41;12.20;;;4.32;;
46563;SDS011;32291;52.010;4.446;2023-05-23T06:08:44;9.30;;;4.50;;
46563;SDS011;32291;52.010;4.446;2023-05-23T06:09:46;11.25;;;4.47;;
46563;SDS011;32291;52.010;4.446;2023-05-23T06:10:48;10.48;;;4.22;;
46563;SDS011;32291;52.010;4.446;2023-05-23T06:11:50;9.18;;;4.57;;
46563;SDS011;32291;52.010;4.446;2023-05-23T06:12:52;9.63;;;4.95;;
46563;SDS011;32291;52.010;4.446;2023-05-23T06:13:53;10.40;;;3.83;;
46563;SDS011;32291;52.010;4.446;2023-05-23T06:14:55;9.02;;;4.40;;
46563;SDS011;32291;52.010;4.446;2023-05-23T06:15:56;9.27;;;3.22;;
46563;SDS011;32291;52.010;4.446;2023-05-23T06:16:58;7.65;;;3.30;;
46563;SDS011;32291;52.010;4.446;2023-05-23T06:18:00;6.63;;;3.45;;